Posh Pelican — 9V7602 — position and weather

sailwx.info

Track history (hours):
 
Tides and Currents Weather Stations Pressure Air Temp Water Temp Dewpoint Dewpoint Depression Visibility Wind Speed Wind Dir Waves Ship Positions

Posh Pelican

Last reported at 2017-Nov-19 01:00 UTC. Time now 2017-Nov-19 01:10 UTC.
Position S 04°55' E 011°32'.

Length 79 m; draft 5.6 m.

Type: Tug. MMSI: 563712000.

Date/timePositionNaut miles runAvg speedWind from/ knotsBaromVisibWave heightAir tempDewpointWater temp
2017-Nov-19 01:00S 04°55' E 011°32'1 0.1
2017-Nov-18 11:01S 04°55' E 011°34'0 6.6
2017-Nov-18 11:00S 04°55' E 011°33'3 6.7
2017-Nov-18 10:30S 04°58' E 011°32'3 6.6
2017-Nov-18 10:00S 05°01' E 011°31'3 6.6
2017-Nov-18 09:30S 05°04' E 011°29'3 6.3
2017-Nov-18 09:00S 05°06' E 011°27'3 6.2
2017-Nov-18 08:30S 05°08' E 011°24'3 6.2
2017-Nov-18 08:00S 05°10' E 011°21'3 6.2
2017-Nov-18 07:30S 05°11' E 011°19'2 3.2
2017-Nov-18 07:00S 05°12' E 011°17'0 0.4
2017-Nov-18 06:30S 05°12' E 011°17'0 0.2
2017-Nov-18 06:00S 05°12' E 011°17'0 0.1
2017-Nov-18 05:30S 05°12' E 011°17'0 0.0
2017-Nov-18 05:00S 05°12' E 011°17'0 0.0
2017-Nov-18 04:30S 05°12' E 011°17'0 0.0
2017-Nov-18 04:00S 05°12' E 011°17'0 0.1
2017-Nov-18 03:30S 05°12' E 011°17'0 0.1
2017-Nov-18 03:00S 05°12' E 011°17'0 0.2
2017-Nov-18 02:30S 05°12' E 011°17'0 0.2
2017-Nov-18 02:00S 05°12' E 011°17'0 0.2
2017-Nov-18 01:30S 05°12' E 011°17'0 0.0
2017-Nov-18 01:00S 05°12' E 011°17'0 0.0
2017-Nov-18 00:30S 05°12' E 011°17'0 0.0
2017-Nov-18 00:00S 05°12' E 011°17'0 0.1
2017-Nov-17 23:30S 05°12' E 011°17'0 0.0
2017-Nov-17 23:00S 05°12' E 011°17'0 0.0
2017-Nov-17 22:30S 05°12' E 011°17'0 0.2
2017-Nov-17 22:00S 05°12' E 011°17'0 0.2
2017-Nov-17 21:30S 05°12' E 011°17'0 0.1
2017-Nov-17 21:00S 05°12' E 011°17'0 0.1
2017-Nov-17 20:30S 05°12' E 011°17'0 0.3
2017-Nov-17 20:00S 05°12' E 011°17'0 0.1
2017-Nov-17 19:30S 05°12' E 011°17'0 0.2
2017-Nov-17 19:00S 05°12' E 011°17'0 0.1
2017-Nov-17 18:30S 05°12' E 011°17'0 0.1
2017-Nov-17 18:00S 05°12' E 011°17'0 0.2
2017-Nov-17 17:23S 05°12' E 011°17'0 0.1
2017-Nov-17 17:00S 05°12' E 011°17'0 0.1
2017-Nov-17 16:30S 05°12' E 011°17'0 0.0
2017-Nov-17 16:00S 05°12' E 011°17'0 0.0
2017-Nov-17 15:30S 05°12' E 011°17'0 0.1
2017-Nov-17 15:00S 05°12' E 011°17'0 0.1
2017-Nov-17 14:30S 05°12' E 011°17'0 0.1
2017-Nov-17 14:00S 05°12' E 011°17'0 0.1
2017-Nov-17 13:30S 05°12' E 011°17'0 0.1
2017-Nov-17 13:00S 05°12' E 011°17'0 0.1
2017-Nov-17 12:30S 05°12' E 011°17'0 0.0
2017-Nov-17 12:00S 05°12' E 011°17'0 0.0
2017-Nov-17 11:30S 05°12' E 011°17'0 0.0
2017-Nov-17 11:00S 05°12' E 011°17'0 0.1
2017-Nov-17 10:30S 05°12' E 011°17'0 0.1
2017-Nov-17 10:00S 05°12' E 011°17'0 0.1
2017-Nov-17 09:30S 05°12' E 011°17'0 0.1
2017-Nov-17 09:00S 05°12' E 011°17'0 0.1
2017-Nov-17 08:30S 05°12' E 011°17'0 0.1
2017-Nov-17 08:00S 05°12' E 011°17'0 0.2
2017-Nov-17 07:30S 05°12' E 011°17'0 0.2
2017-Nov-17 07:00S 05°13' E 011°17'0 0.2
2017-Nov-17 06:28S 05°13' E 011°17'0 0.2
2017-Nov-17 06:00S 05°13' E 011°17'0 0.2
2017-Nov-17 05:30S 05°13' E 011°17'0 0.1
2017-Nov-17 05:00S 05°13' E 011°17'0 0.1
2017-Nov-17 04:30S 05°13' E 011°17'0 0.0
2017-Nov-17 03:57S 05°13' E 011°17'0 0.0
2017-Nov-17 03:30S 05°13' E 011°17'0 0.0
2017-Nov-17 03:00S 05°13' E 011°17'0 0.1
2017-Nov-17 02:30S 05°13' E 011°17'0 0.1
2017-Nov-17 02:00S 05°13' E 011°17'0 0.1
2017-Nov-17 01:30S 05°13' E 011°17'0 0.1
2017-Nov-17 01:00S 05°13' E 011°17'0 0.2
2017-Nov-17 00:30S 05°13' E 011°17'0 0.3
2017-Nov-17 00:00S 05°12' E 011°17'0 0.3
2017-Nov-16 23:30S 05°12' E 011°17'0 0.2
2017-Nov-16 23:00S 05°12' E 011°17'0 0.1
2017-Nov-16 22:30S 05°12' E 011°17'0 0.1
2017-Nov-16 21:59S 05°12' E 011°17'0 0.0
2017-Nov-16 21:30S 05°12' E 011°17'0 0.0
2017-Nov-16 21:00S 05°12' E 011°17'0 0.0
2017-Nov-16 20:30S 05°12' E 011°17'0 0.0
2017-Nov-16 20:00S 05°12' E 011°17'0 0.0
2017-Nov-16 19:30S 05°12' E 011°17'0 0.0
2017-Nov-16 19:00S 05°12' E 011°17'0 0.1
2017-Nov-16 18:30S 05°12' E 011°17'0 0.0
2017-Nov-16 18:00S 05°12' E 011°17'0 0.0
2017-Nov-16 17:30S 05°12' E 011°17'0 0.0
2017-Nov-16 17:00S 05°12' E 011°17'0 0.0
2017-Nov-16 16:30S 05°12' E 011°17'0 0.0
2017-Nov-16 16:00S 05°12' E 011°17'0 0.1
2017-Nov-16 15:30S 05°12' E 011°17'0 0.1
2017-Nov-16 15:00S 05°12' E 011°17'1 1.5
2017-Nov-16 14:30S 05°13' E 011°17'1 1.5
2017-Nov-16 14:00S 05°13' E 011°17'0 0.1
2017-Nov-16 13:30S 05°13' E 011°17'0 0.1
2017-Nov-16 13:00S 05°13' E 011°17'0 0.0
2017-Nov-16 12:30S 05°13' E 011°17'0 0.0
2017-Nov-16 12:00S 05°13' E 011°17'0 0.1
2017-Nov-16 11:30S 05°13' E 011°17'0 0.1
2017-Nov-16 11:00S 05°13' E 011°17'1 1.3
2017-Nov-16 10:30S 05°13' E 011°17'0 0.9
2017-Nov-16 10:00S 05°13' E 011°18'0 0.0
2017-Nov-16 09:30S 05°13' E 011°18'0 0.0
2017-Nov-16 08:58S 05°13' E 011°18'0 0.1
2017-Nov-16 08:30S 05°13' E 011°18'1 1.0
2017-Nov-16 08:00S 05°12' E 011°18'1 2.0
2017-Nov-16 07:30S 05°13' E 011°19'2 4.0
2017-Nov-16 07:00S 05°14' E 011°20'3 5.7
2017-Nov-16 06:30S 05°16' E 011°22'2 3.4
2017-Nov-16 06:00S 05°17' E 011°23'0 0.0
2017-Nov-16 05:30S 05°17' E 011°23'0 0.0
2017-Nov-16 05:00S 05°17' E 011°23'0 0.0
2017-Nov-16 04:30S 05°17' E 011°23'0 0.0
2017-Nov-16 04:00S 05°17' E 011°23'0 0.1
2017-Nov-16 03:30S 05°17' E 011°23'0 0.5
2017-Nov-16 03:00S 05°17' E 011°23'0 0.7
2017-Nov-16 02:30S 05°17' E 011°24'2 3.7
2017-Nov-16 01:59S 05°15' E 011°25'3 5.8
2017-Nov-16 01:29S 05°13' E 011°26'6 5.8
2017-Nov-16 00:27S 05°07' E 011°29'6 5.5
2017-Nov-15 23:25S 05°02' E 011°30'3 5.9
2017-Nov-15 23:00S 04°59' E 011°31'5 0.2
2017-Nov-14 21:06S 04°55' E 011°34'1 7.1
2017-Nov-14 21:00S 04°56' E 011°33'4 7.0
2017-Nov-14 20:28S 04°59' E 011°32'3 7.0
2017-Nov-14 20:00S 05°02' E 011°31'4 7.5
2017-Nov-14 19:27S 05°06' E 011°30'3 6.6
2017-Nov-14 19:00S 05°09' E 011°29'3 6.5
2017-Nov-14 18:30S 05°11' E 011°27'3 6.5
2017-Nov-14 18:00S 05°14' E 011°25'3 6.2
2017-Nov-14 17:30S 05°17' E 011°23'0 0.6
2017-Nov-14 17:00S 05°17' E 011°23'0 0.5
2017-Nov-14 16:30S 05°17' E 011°23'0 0.6
2017-Nov-14 16:00S 05°17' E 011°23'1 1.3
2017-Nov-14 15:30S 05°17' E 011°23'0 0.0
2017-Nov-14 15:00S 05°17' E 011°23'0 0.5
2017-Nov-14 14:30S 05°17' E 011°23'0 0.7
2017-Nov-14 14:00S 05°17' E 011°23'0 0.0
2017-Nov-14 13:30S 05°17' E 011°23'0 0.0
2017-Nov-14 13:00S 05°17' E 011°23'0 0.0
2017-Nov-14 12:30S 05°17' E 011°23'0 0.0
2017-Nov-14 12:00S 05°17' E 011°23'0 0.0
2017-Nov-14 11:30S 05°17' E 011°23'0 0.0
2017-Nov-14 11:00S 05°17' E 011°23'0 0.0
2017-Nov-14 10:30S 05°17' E 011°23'0 0.0
2017-Nov-14 10:00S 05°17' E 011°23'0 0.0
2017-Nov-14 09:30S 05°17' E 011°23'0 0.0
2017-Nov-14 08:56S 05°17' E 011°23'0 0.0
2017-Nov-14 08:30S 05°17' E 011°23'0 0.0
2017-Nov-14 08:00S 05°17' E 011°23'0 0.0
2017-Nov-14 07:30S 05°17' E 011°23'0 0.0
2017-Nov-14 07:00S 05°17' E 011°23'0 0.3
2017-Nov-14 06:30S 05°17' E 011°23'1 2.4
2017-Nov-14 06:00S 05°16' E 011°23'0 0.4
2017-Nov-14 05:27S 05°16' E 011°23'0 0.1
2017-Nov-14 05:00S 05°16' E 011°23'0 0.0
2017-Nov-14 04:30S 05°16' E 011°23'0 0.1
2017-Nov-14 04:00S 05°16' E 011°23'0 0.0
2017-Nov-14 03:30S 05°16' E 011°23'0 0.1
2017-Nov-14 03:00S 05°16' E 011°23'0 0.0
2017-Nov-14 02:30S 05°16' E 011°23'0 0.0
2017-Nov-14 02:00S 05°16' E 011°23'0 0.0
2017-Nov-14 01:30S 05°16' E 011°23'0 0.0
2017-Nov-14 01:00S 05°16' E 011°23'0 0.0
2017-Nov-14 00:30S 05°16' E 011°23'0 0.1
2017-Nov-14 00:00S 05°16' E 011°23'0 0.1
2017-Nov-13 23:30S 05°16' E 011°23'0 0.0
2017-Nov-13 23:00S 05°16' E 011°23'0 0.1
2017-Nov-13 22:30S 05°16' E 011°23'0 0.3
2017-Nov-13 22:00S 05°16' E 011°23'0 0.0
2017-Nov-13 02:00S 05°16' E 011°23'0 0.1
2017-Nov-13 01:30S 05°16' E 011°23'0 0.1
2017-Nov-13 01:00S 05°16' E 011°23'0 0.1
2017-Nov-13 00:30S 05°16' E 011°23'0 0.1
2017-Nov-12 23:59S 05°16' E 011°23'0 0.0
2017-Nov-12 23:30S 05°16' E 011°23'0 0.1
2017-Nov-12 23:00S 05°16' E 011°23'0 0.1
2017-Nov-12 22:30S 05°16' E 011°23'0 0.0
2017-Nov-12 22:00S 05°16' E 011°23'0 0.0
2017-Nov-12 21:28S 05°16' E 011°23'0 0.1
2017-Nov-12 21:00S 05°16' E 011°23'0 0.0
2017-Nov-12 20:29S 05°16' E 011°23'0 0.1
2017-Nov-12 20:00S 05°16' E 011°23'0 0.1
2017-Nov-12 19:30S 05°16' E 011°23'0 0.0
2017-Nov-12 19:00S 05°16' E 011°23'0 0.0
2017-Nov-12 18:30S 05°16' E 011°23'0 0.0
2017-Nov-12 18:00S 05°16' E 011°23'0 0.0
2017-Nov-12 17:30S 05°16' E 011°23'0 0.1
2017-Nov-12 17:00S 05°16' E 011°23'0 0.1
2017-Nov-12 16:30S 05°16' E 011°23'0 0.0
2017-Nov-12 16:00S 05°16' E 011°23'0 0.6
2017-Nov-12 15:30S 05°16' E 011°22'3 6.9
2017-Nov-12 15:00S 05°12' E 011°23'4 8.5
2017-Nov-12 14:30S 05°09' E 011°26'4 8.6
2017-Nov-12 14:00S 05°05' E 011°28'4 8.6
2017-Nov-12 13:30S 05°01' E 011°30'4 8.5
2017-Nov-12 13:00S 04°57' E 011°31'2 0.1
2017-Nov-11 07:48S 04°59' E 011°32'2 7.0
2017-Nov-11 07:30S 05°01' E 011°31'4 7.1
2017-Nov-11 07:00S 05°04' E 011°30'3 7.0
2017-Nov-11 06:30S 05°07' E 011°27'3 7.1
2017-Nov-11 06:00S 05°08' E 011°24'4 7.0
2017-Nov-11 05:30S 05°10' E 011°21'3 6.8
2017-Nov-11 05:00S 05°12' E 011°18'1 2.8
2017-Nov-11 04:30S 05°12' E 011°17'0 0.0
2017-Nov-11 04:00S 05°12' E 011°17'0 0.0
2017-Nov-11 03:31S 05°12' E 011°17'0 0.8
2017-Nov-11 03:00S 05°12' E 011°17'1 1.3
2017-Nov-11 02:30S 05°13' E 011°18'0 0.0
2017-Nov-11 02:00S 05°13' E 011°18'0 0.0
2017-Nov-11 01:26S 05°13' E 011°18'0 0.1
2017-Nov-11 01:00S 05°13' E 011°18'0 0.0
2017-Nov-11 00:30S 05°13' E 011°18'0 0.0
2017-Nov-11 00:00S 05°13' E 011°18'0 0.0
2017-Nov-10 23:30S 05°13' E 011°18'0 0.0
2017-Nov-10 23:00S 05°13' E 011°18'0 0.0
2017-Nov-10 22:30S 05°13' E 011°18'0 0.0
2017-Nov-10 22:01S 05°13' E 011°18'0 0.0
2017-Nov-10 21:30S 05°13' E 011°18'0 0.0
2017-Nov-10 21:00S 05°13' E 011°18'0 0.1
2017-Nov-10 20:31S 05°13' E 011°18'0 0.6
2017-Nov-10 20:00S 05°13' E 011°18'1 2.6
2017-Nov-10 19:31S 05°12' E 011°17'0 0.7
2017-Nov-10 19:00S 05°12' E 011°17'0 0.4
2017-Nov-10 18:30S 05°12' E 011°17'0 0.1
2017-Nov-10 18:00S 05°12' E 011°17'1 1.3
2017-Nov-10 17:30S 05°12' E 011°17'1 2.1
2017-Nov-10 17:00S 05°13' E 011°18'0 0.0
2017-Nov-10 16:30S 05°13' E 011°18'0 0.0
2017-Nov-10 16:00S 05°13' E 011°18'0 0.0
2017-Nov-10 15:30S 05°13' E 011°18'0 0.0
2017-Nov-10 15:00S 05°13' E 011°18'0 0.0
2017-Nov-10 14:29S 05°13' E 011°18'0 0.1
2017-Nov-10 14:00S 05°13' E 011°18'0 0.0
2017-Nov-10 13:30S 05°13' E 011°18'0 0.0
2017-Nov-10 13:00S 05°13' E 011°18'0 0.0
2017-Nov-10 12:30S 05°13' E 011°18'0 0.0
2017-Nov-10 12:00S 05°13' E 011°18'0 0.0
2017-Nov-10 11:30S 05°13' E 011°18'0 0.0
2017-Nov-10 11:00S 05°13' E 011°18'0 0.0
2017-Nov-10 10:30S 05°13' E 011°18'0 0.0
2017-Nov-10 10:00S 05°13' E 011°18'0 0.0
2017-Nov-10 09:30S 05°13' E 011°18'0 0.0
2017-Nov-10 09:00S 05°13' E 011°18'0 0.0
2017-Nov-10 08:30S 05°13' E 011°18'0 0.0
2017-Nov-10 08:00S 05°13' E 011°18'0 0.0
2017-Nov-10 07:30S 05°13' E 011°18'0 0.0
2017-Nov-10 07:00S 05°13' E 011°18'0 0.0
2017-Nov-10 06:30S 05°13' E 011°18'0 0.0
2017-Nov-10 06:00S 05°13' E 011°18'0 0.0
2017-Nov-10 05:30S 05°13' E 011°18'0 0.0
2017-Nov-10 05:00S 05°13' E 011°18'0 0.0
2017-Nov-10 04:30S 05°13' E 011°18'0 0.0
2017-Nov-10 04:00S 05°13' E 011°18'0 0.0
2017-Nov-10 03:30S 05°13' E 011°18'0 0.0
2017-Nov-10 03:00S 05°13' E 011°18'0 0.0
2017-Nov-10 02:30S 05°13' E 011°18'0 0.0
2017-Nov-10 02:00S 05°13' E 011°18'0 0.0
2017-Nov-10 01:30S 05°13' E 011°18'0 0.0
2017-Nov-10 01:00S 05°13' E 011°18'0 0.0
2017-Nov-10 00:30S 05°13' E 011°18'0 0.0
2017-Nov-10 00:00S 05°13' E 011°18'0 0.0
2017-Nov-09 23:30S 05°13' E 011°18'0 0.0
2017-Nov-09 23:00S 05°13' E 011°18'0 0.0
2017-Nov-09 22:30S 05°13' E 011°18'0 0.1
2017-Nov-09 22:00S 05°13' E 011°18'0 0.1
2017-Nov-09 21:30S 05°13' E 011°18'0 0.0
2017-Nov-09 21:00S 05°13' E 011°18'0 0.0
2017-Nov-09 20:30S 05°13' E 011°18'0 0.0
2017-Nov-09 20:00S 05°13' E 011°18'0 0.0
2017-Nov-09 19:30S 05°13' E 011°18'0 0.0
2017-Nov-09 19:00S 05°13' E 011°18'0 0.0
2017-Nov-09 18:30S 05°13' E 011°18'0 0.0
2017-Nov-09 18:00S 05°13' E 011°18'0 0.0
2017-Nov-09 17:30S 05°13' E 011°18'0 0.0
2017-Nov-09 17:00S 05°13' E 011°18'0 0.0
2017-Nov-09 16:30S 05°13' E 011°18'0 0.0
2017-Nov-09 16:00S 05°13' E 011°18'0 0.0
2017-Nov-09 15:30S 05°13' E 011°18'0 0.0
2017-Nov-09 15:00S 05°13' E 011°18'0 0.4
2017-Nov-09 14:30S 05°13' E 011°18'0 0.3
2017-Nov-09 13:59S 05°13' E 011°18'1 1.3
2017-Nov-09 13:30S 05°12' E 011°17'0 0.4
2017-Nov-09 13:00S 05°12' E 011°17'0 0.3
2017-Nov-09 12:30S 05°12' E 011°17'0 0.2
2017-Nov-09 12:01S 05°12' E 011°18'0 0.5
2017-Nov-09 11:30S 05°12' E 011°17'0 0.2
2017-Nov-09 11:00S 05°12' E 011°18'1 1.2
2017-Nov-09 10:31S 05°12' E 011°18'0 0.0
2017-Nov-09 10:00S 05°12' E 011°18'0 0.0
2017-Nov-09 09:30S 05°12' E 011°18'0 0.2
2017-Nov-09 09:00S 05°12' E 011°18'1 2.0
2017-Nov-09 08:30S 05°11' E 011°17'0 0.2
2017-Nov-09 08:00S 05°11' E 011°17'0 0.1
2017-Nov-09 07:31S 05°12' E 011°17'0 0.1
2017-Nov-09 07:00S 05°11' E 011°17'0 0.3
2017-Nov-09 06:31S 05°11' E 011°17'0 0.9
2017-Nov-09 06:00S 05°12' E 011°17'0 0.0
2017-Nov-09 05:30S 05°12' E 011°17'0 0.0
2017-Nov-09 05:00S 05°12' E 011°17'0 0.1
2017-Nov-09 04:30S 05°12' E 011°17'0 0.1
2017-Nov-09 04:00S 05°12' E 011°17'0 0.2
2017-Nov-09 03:30S 05°12' E 011°17'0 0.1
2017-Nov-09 03:00S 05°12' E 011°17'0 0.1
2017-Nov-09 02:30S 05°12' E 011°17'0 0.1
2017-Nov-09 02:00S 05°12' E 011°17'0 0.2
2017-Nov-09 01:30S 05°12' E 011°17'  
Track history (hours):
 
Tides and Currents Weather Stations Pressure Air Temp Water Temp Dewpoint Dewpoint Depression Visibility Wind Speed Wind Dir Waves Ship Positions

Posh Pelican

Last reported at 2017-Nov-19 01:00 UTC. Time now 2017-Nov-19 01:10 UTC.
Position S 04°55' E 011°32'.

Length 79 m; draft 5.6 m.

Type: Tug. MMSI: 563712000.

Date/timePositionNaut miles runAvg speedWind from/ knotsBaromVisibWave heightAir tempDewpointWater temp
2017-Nov-19 01:00S 04°55' E 011°32'1 0.1
2017-Nov-18 11:01S 04°55' E 011°34'0 6.6
2017-Nov-18 11:00S 04°55' E 011°33'3 6.7
2017-Nov-18 10:30S 04°58' E 011°32'3 6.6
2017-Nov-18 10:00S 05°01' E 011°31'3 6.6
2017-Nov-18 09:30S 05°04' E 011°29'3 6.3
2017-Nov-18 09:00S 05°06' E 011°27'3 6.2
2017-Nov-18 08:30S 05°08' E 011°24'3 6.2
2017-Nov-18 08:00S 05°10' E 011°21'3 6.2
2017-Nov-18 07:30S 05°11' E 011°19'2 3.2
2017-Nov-18 07:00S 05°12' E 011°17'0 0.4
2017-Nov-18 06:30S 05°12' E 011°17'0 0.2
2017-Nov-18 06:00S 05°12' E 011°17'0 0.1
2017-Nov-18 05:30S 05°12' E 011°17'0 0.0
2017-Nov-18 05:00S 05°12' E 011°17'0 0.0
2017-Nov-18 04:30S 05°12' E 011°17'0 0.0
2017-Nov-18 04:00S 05°12' E 011°17'0 0.1
2017-Nov-18 03:30S 05°12' E 011°17'0 0.1
2017-Nov-18 03:00S 05°12' E 011°17'0 0.2
2017-Nov-18 02:30S 05°12' E 011°17'0 0.2
2017-Nov-18 02:00S 05°12' E 011°17'0 0.2
2017-Nov-18 01:30S 05°12' E 011°17'0 0.0
2017-Nov-18 01:00S 05°12' E 011°17'0 0.0
2017-Nov-18 00:30S 05°12' E 011°17'0 0.0
2017-Nov-18 00:00S 05°12' E 011°17'0 0.1
2017-Nov-17 23:30S 05°12' E 011°17'0 0.0
2017-Nov-17 23:00S 05°12' E 011°17'0 0.0
2017-Nov-17 22:30S 05°12' E 011°17'0 0.2
2017-Nov-17 22:00S 05°12' E 011°17'0 0.2
2017-Nov-17 21:30S 05°12' E 011°17'0 0.1
2017-Nov-17 21:00S 05°12' E 011°17'0 0.1
2017-Nov-17 20:30S 05°12' E 011°17'0 0.3
2017-Nov-17 20:00S 05°12' E 011°17'0 0.1
2017-Nov-17 19:30S 05°12' E 011°17'0 0.2
2017-Nov-17 19:00S 05°12' E 011°17'0 0.1
2017-Nov-17 18:30S 05°12' E 011°17'0 0.1
2017-Nov-17 18:00S 05°12' E 011°17'0 0.2
2017-Nov-17 17:23S 05°12' E 011°17'0 0.1
2017-Nov-17 17:00S 05°12' E 011°17'0 0.1
2017-Nov-17 16:30S 05°12' E 011°17'0 0.0
2017-Nov-17 16:00S 05°12' E 011°17'0 0.0
2017-Nov-17 15:30S 05°12' E 011°17'0 0.1
2017-Nov-17 15:00S 05°12' E 011°17'0 0.1
2017-Nov-17 14:30S 05°12' E 011°17'0 0.1
2017-Nov-17 14:00S 05°12' E 011°17'0 0.1
2017-Nov-17 13:30S 05°12' E 011°17'0 0.1
2017-Nov-17 13:00S 05°12' E 011°17'0 0.1
2017-Nov-17 12:30S 05°12' E 011°17'0 0.0
2017-Nov-17 12:00S 05°12' E 011°17'0 0.0
2017-Nov-17 11:30S 05°12' E 011°17'0 0.0
2017-Nov-17 11:00S 05°12' E 011°17'0 0.1
2017-Nov-17 10:30S 05°12' E 011°17'0 0.1
2017-Nov-17 10:00S 05°12' E 011°17'0 0.1
2017-Nov-17 09:30S 05°12' E 011°17'0 0.1
2017-Nov-17 09:00S 05°12' E 011°17'0 0.1
2017-Nov-17 08:30S 05°12' E 011°17'0 0.1
2017-Nov-17 08:00S 05°12' E 011°17'0 0.2
2017-Nov-17 07:30S 05°12' E 011°17'0 0.2
2017-Nov-17 07:00S 05°13' E 011°17'0 0.2
2017-Nov-17 06:28S 05°13' E 011°17'0 0.2
2017-Nov-17 06:00S 05°13' E 011°17'0 0.2
2017-Nov-17 05:30S 05°13' E 011°17'0 0.1
2017-Nov-17 05:00S 05°13' E 011°17'0 0.1
2017-Nov-17 04:30S 05°13' E 011°17'0 0.0
2017-Nov-17 03:57S 05°13' E 011°17'0 0.0
2017-Nov-17 03:30S 05°13' E 011°17'0 0.0
2017-Nov-17 03:00S 05°13' E 011°17'0 0.1
2017-Nov-17 02:30S 05°13' E 011°17'0 0.1
2017-Nov-17 02:00S 05°13' E 011°17'0 0.1
2017-Nov-17 01:30S 05°13' E 011°17'0 0.1
2017-Nov-17 01:00S 05°13' E 011°17'0 0.2
2017-Nov-17 00:30S 05°13' E 011°17'0 0.3
2017-Nov-17 00:00S 05°12' E 011°17'0 0.3
2017-Nov-16 23:30S 05°12' E 011°17'0 0.2
2017-Nov-16 23:00S 05°12' E 011°17'0 0.1
2017-Nov-16 22:30S 05°12' E 011°17'0 0.1
2017-Nov-16 21:59S 05°12' E 011°17'0 0.0
2017-Nov-16 21:30S 05°12' E 011°17'0 0.0
2017-Nov-16 21:00S 05°12' E 011°17'0 0.0
2017-Nov-16 20:30S 05°12' E 011°17'0 0.0
2017-Nov-16 20:00S 05°12' E 011°17'0 0.0
2017-Nov-16 19:30S 05°12' E 011°17'0 0.0
2017-Nov-16 19:00S 05°12' E 011°17'0 0.1
2017-Nov-16 18:30S 05°12' E 011°17'0 0.0
2017-Nov-16 18:00S 05°12' E 011°17'0 0.0
2017-Nov-16 17:30S 05°12' E 011°17'0 0.0
2017-Nov-16 17:00S 05°12' E 011°17'0 0.0
2017-Nov-16 16:30S 05°12' E 011°17'0 0.0
2017-Nov-16 16:00S 05°12' E 011°17'0 0.1
2017-Nov-16 15:30S 05°12' E 011°17'0 0.1
2017-Nov-16 15:00S 05°12' E 011°17'1 1.5
2017-Nov-16 14:30S 05°13' E 011°17'1 1.5
2017-Nov-16 14:00S 05°13' E 011°17'0 0.1
2017-Nov-16 13:30S 05°13' E 011°17'0 0.1
2017-Nov-16 13:00S 05°13' E 011°17'0 0.0
2017-Nov-16 12:30S 05°13' E 011°17'0 0.0
2017-Nov-16 12:00S 05°13' E 011°17'0 0.1
2017-Nov-16 11:30S 05°13' E 011°17'0 0.1
2017-Nov-16 11:00S 05°13' E 011°17'1 1.3
2017-Nov-16 10:30S 05°13' E 011°17'0 0.9
2017-Nov-16 10:00S 05°13' E 011°18'0 0.0
2017-Nov-16 09:30S 05°13' E 011°18'0 0.0
2017-Nov-16 08:58S 05°13' E 011°18'0 0.1
2017-Nov-16 08:30S 05°13' E 011°18'1 1.0
2017-Nov-16 08:00S 05°12' E 011°18'1 2.0
2017-Nov-16 07:30S 05°13' E 011°19'2 4.0
2017-Nov-16 07:00S 05°14' E 011°20'3 5.7
2017-Nov-16 06:30S 05°16' E 011°22'2 3.4
2017-Nov-16 06:00S 05°17' E 011°23'0 0.0
2017-Nov-16 05:30S 05°17' E 011°23'0 0.0
2017-Nov-16 05:00S 05°17' E 011°23'0 0.0
2017-Nov-16 04:30S 05°17' E 011°23'0 0.0
2017-Nov-16 04:00S 05°17' E 011°23'0 0.1
2017-Nov-16 03:30S 05°17' E 011°23'0 0.5
2017-Nov-16 03:00S 05°17' E 011°23'0 0.7
2017-Nov-16 02:30S 05°17' E 011°24'2 3.7
2017-Nov-16 01:59S 05°15' E 011°25'3 5.8
2017-Nov-16 01:29S 05°13' E 011°26'6 5.8
2017-Nov-16 00:27S 05°07' E 011°29'6 5.5
2017-Nov-15 23:25S 05°02' E 011°30'3 5.9
2017-Nov-15 23:00S 04°59' E 011°31'5 0.2
2017-Nov-14 21:06S 04°55' E 011°34'1 7.1
2017-Nov-14 21:00S 04°56' E 011°33'4 7.0
2017-Nov-14 20:28S 04°59' E 011°32'3 7.0
2017-Nov-14 20:00S 05°02' E 011°31'4 7.5
2017-Nov-14 19:27S 05°06' E 011°30'3 6.6
2017-Nov-14 19:00S 05°09' E 011°29'3 6.5
2017-Nov-14 18:30S 05°11' E 011°27'3 6.5
2017-Nov-14 18:00S 05°14' E 011°25'3 6.2
2017-Nov-14 17:30S 05°17' E 011°23'0 0.6
2017-Nov-14 17:00S 05°17' E 011°23'0 0.5
2017-Nov-14 16:30S 05°17' E 011°23'0 0.6
2017-Nov-14 16:00S 05°17' E 011°23'1 1.3
2017-Nov-14 15:30S 05°17' E 011°23'0 0.0
2017-Nov-14 15:00S 05°17' E 011°23'0 0.5
2017-Nov-14 14:30S 05°17' E 011°23'0 0.7
2017-Nov-14 14:00S 05°17' E 011°23'0 0.0
2017-Nov-14 13:30S 05°17' E 011°23'0 0.0
2017-Nov-14 13:00S 05°17' E 011°23'0 0.0
2017-Nov-14 12:30S 05°17' E 011°23'0 0.0
2017-Nov-14 12:00S 05°17' E 011°23'0 0.0
2017-Nov-14 11:30S 05°17' E 011°23'0 0.0
2017-Nov-14 11:00S 05°17' E 011°23'0 0.0
2017-Nov-14 10:30S 05°17' E 011°23'0 0.0
2017-Nov-14 10:00S 05°17' E 011°23'0 0.0
2017-Nov-14 09:30S 05°17' E 011°23'0 0.0
2017-Nov-14 08:56S 05°17' E 011°23'0 0.0
2017-Nov-14 08:30S 05°17' E 011°23'0 0.0
2017-Nov-14 08:00S 05°17' E 011°23'0 0.0
2017-Nov-14 07:30S 05°17' E 011°23'0 0.0
2017-Nov-14 07:00S 05°17' E 011°23'0 0.3
2017-Nov-14 06:30S 05°17' E 011°23'1 2.4
2017-Nov-14 06:00S 05°16' E 011°23'0 0.4
2017-Nov-14 05:27S 05°16' E 011°23'0 0.1
2017-Nov-14 05:00S 05°16' E 011°23'0 0.0
2017-Nov-14 04:30S 05°16' E 011°23'0 0.1
2017-Nov-14 04:00S 05°16' E 011°23'0 0.0
2017-Nov-14 03:30S 05°16' E 011°23'0 0.1
2017-Nov-14 03:00S 05°16' E 011°23'0 0.0
2017-Nov-14 02:30S 05°16' E 011°23'0 0.0
2017-Nov-14 02:00S 05°16' E 011°23'0 0.0
2017-Nov-14 01:30S 05°16' E 011°23'0 0.0
2017-Nov-14 01:00S 05°16' E 011°23'0 0.0
2017-Nov-14 00:30S 05°16' E 011°23'0 0.1
2017-Nov-14 00:00S 05°16' E 011°23'0 0.1
2017-Nov-13 23:30S 05°16' E 011°23'0 0.0
2017-Nov-13 23:00S 05°16' E 011°23'0 0.1
2017-Nov-13 22:30S 05°16' E 011°23'0 0.3
2017-Nov-13 22:00S 05°16' E 011°23'0 0.0
2017-Nov-13 02:00S 05°16' E 011°23'0 0.1
2017-Nov-13 01:30S 05°16' E 011°23'0 0.1
2017-Nov-13 01:00S 05°16' E 011°23'0 0.1
2017-Nov-13 00:30S 05°16' E 011°23'0 0.1
2017-Nov-12 23:59S 05°16' E 011°23'0 0.0
2017-Nov-12 23:30S 05°16' E 011°23'0 0.1
2017-Nov-12 23:00S 05°16' E 011°23'0 0.1
2017-Nov-12 22:30S 05°16' E 011°23'0 0.0
2017-Nov-12 22:00S 05°16' E 011°23'0 0.0
2017-Nov-12 21:28S 05°16' E 011°23'0 0.1
2017-Nov-12 21:00S 05°16' E 011°23'0 0.0
2017-Nov-12 20:29S 05°16' E 011°23'0 0.1
2017-Nov-12 20:00S 05°16' E 011°23'0 0.1
2017-Nov-12 19:30S 05°16' E 011°23'0 0.0
2017-Nov-12 19:00S 05°16' E 011°23'0 0.0
2017-Nov-12 18:30S 05°16' E 011°23'0 0.0
2017-Nov-12 18:00S 05°16' E 011°23'0 0.0
2017-Nov-12 17:30S 05°16' E 011°23'0 0.1
2017-Nov-12 17:00S 05°16' E 011°23'0 0.1
2017-Nov-12 16:30S 05°16' E 011°23'0 0.0
2017-Nov-12 16:00S 05°16' E 011°23'0 0.6
2017-Nov-12 15:30S 05°16' E 011°22'3 6.9
2017-Nov-12 15:00S 05°12' E 011°23'4 8.5
2017-Nov-12 14:30S 05°09' E 011°26'4 8.6
2017-Nov-12 14:00S 05°05' E 011°28'4 8.6
2017-Nov-12 13:30S 05°01' E 011°30'4 8.5
2017-Nov-12 13:00S 04°57' E 011°31'2 0.1
2017-Nov-11 07:48S 04°59' E 011°32'2 7.0
2017-Nov-11 07:30S 05°01' E 011°31'4 7.1
2017-Nov-11 07:00S 05°04' E 011°30'3 7.0
2017-Nov-11 06:30S 05°07' E 011°27'3 7.1
2017-Nov-11 06:00S 05°08' E 011°24'4 7.0
2017-Nov-11 05:30S 05°10' E 011°21'3 6.8
2017-Nov-11 05:00S 05°12' E 011°18'1 2.8
2017-Nov-11 04:30S 05°12' E 011°17'0 0.0
2017-Nov-11 04:00S 05°12' E 011°17'0 0.0
2017-Nov-11 03:31S 05°12' E 011°17'0 0.8
2017-Nov-11 03:00S 05°12' E 011°17'1 1.3
2017-Nov-11 02:30S 05°13' E 011°18'0 0.0
2017-Nov-11 02:00S 05°13' E 011°18'0 0.0
2017-Nov-11 01:26S 05°13' E 011°18'0 0.1
2017-Nov-11 01:00S 05°13' E 011°18'0 0.0
2017-Nov-11 00:30S 05°13' E 011°18'0 0.0
2017-Nov-11 00:00S 05°13' E 011°18'0 0.0
2017-Nov-10 23:30S 05°13' E 011°18'0 0.0
2017-Nov-10 23:00S 05°13' E 011°18'0 0.0
2017-Nov-10 22:30S 05°13' E 011°18'0 0.0
2017-Nov-10 22:01S 05°13' E 011°18'0 0.0
2017-Nov-10 21:30S 05°13' E 011°18'0 0.0
2017-Nov-10 21:00S 05°13' E 011°18'0 0.1
2017-Nov-10 20:31S 05°13' E 011°18'0 0.6
2017-Nov-10 20:00S 05°13' E 011°18'1 2.6
2017-Nov-10 19:31S 05°12' E 011°17'0 0.7
2017-Nov-10 19:00S 05°12' E 011°17'0 0.4
2017-Nov-10 18:30S 05°12' E 011°17'0 0.1
2017-Nov-10 18:00S 05°12' E 011°17'1 1.3
2017-Nov-10 17:30S 05°12' E 011°17'1 2.1
2017-Nov-10 17:00S 05°13' E 011°18'0 0.0
2017-Nov-10 16:30S 05°13' E 011°18'0 0.0
2017-Nov-10 16:00S 05°13' E 011°18'0 0.0
2017-Nov-10 15:30S 05°13' E 011°18'0 0.0
2017-Nov-10 15:00S 05°13' E 011°18'0 0.0
2017-Nov-10 14:29S 05°13' E 011°18'0 0.1
2017-Nov-10 14:00S 05°13' E 011°18'0 0.0
2017-Nov-10 13:30S 05°13' E 011°18'0 0.0
2017-Nov-10 13:00S 05°13' E 011°18'0 0.0
2017-Nov-10 12:30S 05°13' E 011°18'0 0.0
2017-Nov-10 12:00S 05°13' E 011°18'0 0.0
2017-Nov-10 11:30S 05°13' E 011°18'0 0.0
2017-Nov-10 11:00S 05°13' E 011°18'0 0.0
2017-Nov-10 10:30S 05°13' E 011°18'0 0.0
2017-Nov-10 10:00S 05°13' E 011°18'0 0.0
2017-Nov-10 09:30S 05°13' E 011°18'0 0.0
2017-Nov-10 09:00S 05°13' E 011°18'0 0.0
2017-Nov-10 08:30S 05°13' E 011°18'0 0.0
2017-Nov-10 08:00S 05°13' E 011°18'0 0.0
2017-Nov-10 07:30S 05°13' E 011°18'0 0.0
2017-Nov-10 07:00S 05°13' E 011°18'0 0.0
2017-Nov-10 06:30S 05°13' E 011°18'0 0.0
2017-Nov-10 06:00S 05°13' E 011°18'0 0.0
2017-Nov-10 05:30S 05°13' E 011°18'0 0.0
2017-Nov-10 05:00S 05°13' E 011°18'0 0.0
2017-Nov-10 04:30S 05°13' E 011°18'0 0.0
2017-Nov-10 04:00S 05°13' E 011°18'0 0.0
2017-Nov-10 03:30S 05°13' E 011°18'0 0.0
2017-Nov-10 03:00S 05°13' E 011°18'0 0.0
2017-Nov-10 02:30S 05°13' E 011°18'0 0.0
2017-Nov-10 02:00S 05°13' E 011°18'0 0.0
2017-Nov-10 01:30S 05°13' E 011°18'0 0.0
2017-Nov-10 01:00S 05°13' E 011°18'0 0.0
2017-Nov-10 00:30S 05°13' E 011°18'0 0.0
2017-Nov-10 00:00S 05°13' E 011°18'0 0.0
2017-Nov-09 23:30S 05°13' E 011°18'0 0.0
2017-Nov-09 23:00S 05°13' E 011°18'0 0.0
2017-Nov-09 22:30S 05°13' E 011°18'0 0.1
2017-Nov-09 22:00S 05°13' E 011°18'0 0.1
2017-Nov-09 21:30S 05°13' E 011°18'0 0.0
2017-Nov-09 21:00S 05°13' E 011°18'0 0.0
2017-Nov-09 20:30S 05°13' E 011°18'0 0.0
2017-Nov-09 20:00S 05°13' E 011°18'0 0.0
2017-Nov-09 19:30S 05°13' E 011°18'0 0.0
2017-Nov-09 19:00S 05°13' E 011°18'0 0.0
2017-Nov-09 18:30S 05°13' E 011°18'0 0.0
2017-Nov-09 18:00S 05°13' E 011°18'0 0.0
2017-Nov-09 17:30S 05°13' E 011°18'0 0.0
2017-Nov-09 17:00S 05°13' E 011°18'0 0.0
2017-Nov-09 16:30S 05°13' E 011°18'0 0.0
2017-Nov-09 16:00S 05°13' E 011°18'0 0.0
2017-Nov-09 15:30S 05°13' E 011°18'0 0.0
2017-Nov-09 15:00S 05°13' E 011°18'0 0.4
2017-Nov-09 14:30S 05°13' E 011°18'0 0.3
2017-Nov-09 13:59S 05°13' E 011°18'1 1.3
2017-Nov-09 13:30S 05°12' E 011°17'0 0.4
2017-Nov-09 13:00S 05°12' E 011°17'0 0.3
2017-Nov-09 12:30S 05°12' E 011°17'0 0.2
2017-Nov-09 12:01S 05°12' E 011°18'0 0.5
2017-Nov-09 11:30S 05°12' E 011°17'0 0.2
2017-Nov-09 11:00S 05°12' E 011°18'1 1.2
2017-Nov-09 10:31S 05°12' E 011°18'0 0.0
2017-Nov-09 10:00S 05°12' E 011°18'0 0.0
2017-Nov-09 09:30S 05°12' E 011°18'0 0.2
2017-Nov-09 09:00S 05°12' E 011°18'1 2.0
2017-Nov-09 08:30S 05°11' E 011°17'0 0.2
2017-Nov-09 08:00S 05°11' E 011°17'0 0.1
2017-Nov-09 07:31S 05°12' E 011°17'0 0.1
2017-Nov-09 07:00S 05°11' E 011°17'0 0.3
2017-Nov-09 06:31S 05°11' E 011°17'0 0.9
2017-Nov-09 06:00S 05°12' E 011°17'0 0.0
2017-Nov-09 05:30S 05°12' E 011°17'0 0.0
2017-Nov-09 05:00S 05°12' E 011°17'0 0.1
2017-Nov-09 04:30S 05°12' E 011°17'0 0.1
2017-Nov-09 04:00S 05°12' E 011°17'0 0.2
2017-Nov-09 03:30S 05°12' E 011°17'0 0.1
2017-Nov-09 03:00S 05°12' E 011°17'0 0.1
2017-Nov-09 02:30S 05°12' E 011°17'0 0.1
2017-Nov-09 02:00S 05°12' E 011°17'0 0.2
2017-Nov-09 01:30S 05°12' E 011°17'  

Dump ship's entire track history